Time;durP1;ratioP1;P1;durP2;ratioP2;P2;SDS_P1;SDS_P2;PMS_P1;PMS_P2;Temp;Humidity;BMP_temperature;BMP_pressure;BME280_temperature;BME280_humidity;BME280_pressure;Samples;Min_cycle;Max_cycle;Signal;HPM_P1;HPM_P2
2023/03/27 00:01:26;;;;;;;1.17;0.50;;;6.10;99.90;;;;;;5055526;28;20432;-52
2023/03/27 00:03:54;;;;;;;1.13;0.30;;;6.10;99.90;;;;;;5071965;28;20071;-50
2023/03/27 00:06:23;;;;;;;0.70;0.30;;;6.00;99.90;;;;;;5069682;28;20082;-51
2023/03/27 00:08:50;;;;;;;0.70;0.38;;;6.00;99.90;;;;;;5071119;28;20093;-51
2023/03/27 00:11:19;;;;;;;2.28;0.20;;;6.00;99.90;;;;;;5069591;28;20436;-50
2023/03/27 00:13:48;;;;;;;1.65;0.30;;;5.90;99.90;;;;;;5071830;28;20033;-50
2023/03/27 00:16:18;;;;;;;0.70;0.40;;;5.90;99.90;;;;;;5073307;28;20040;-49
2023/03/27 00:18:45;;;;;;;2.42;0.82;;;5.90;99.90;;;;;;5077103;28;20554;-51
2023/03/27 00:21:13;;;;;;;3.00;0.30;;;5.90;99.90;;;;;;5068823;28;20067;-49
2023/03/27 00:23:41;;;;;;;0.25;0.17;;;5.80;99.90;;;;;;5064825;28;20041;-50
2023/03/27 00:26:07;;;;;;;0.77;0.30;;;5.80;99.90;;;;;;5049942;28;20053;-50
2023/03/27 00:28:35;;;;;;;1.42;0.30;;;5.80;99.90;;;;;;5069869;28;20460;-51
2023/03/27 00:31:02;;;;;;;;;;;5.70;99.90;;;;;;5070840;28;20048;-50
2023/03/27 00:33:29;;;;;;;0.15;0.10;;;5.60;99.90;;;;;;5043203;28;20037;-50
2023/03/27 00:35:56;;;;;;;0.30;0.20;;;5.60;99.90;;;;;;5070551;28;20060;-49
2023/03/27 00:38:23;;;;;;;0.77;0.30;;;5.60;99.90;;;;;;5048711;28;20052;-51
2023/03/27 00:40:53;;;;;;;0.30;0.30;;;5.60;99.90;;;;;;5070532;28;20052;-49
2023/03/27 00:43:27;;;;;;;0.40;0.15;;;5.60;99.90;;;;;;5070768;28;20404;-50
2023/03/27 00:46:13;;;;;;;0.20;0.10;;;5.60;99.90;;;;;;5070468;28;20044;-50
2023/03/27 00:48:45;;;;;;;2.50;0.10;;;5.70;99.90;;;;;;5070007;28;20750;-50
2023/03/27 00:51:12;;;;;;;0.82;0.30;;;5.70;99.90;;;;;;5051218;28;20412;-50
2023/03/27 00:53:40;;;;;;;1.13;0.40;;;5.80;99.90;;;;;;5055697;28;20045;-50
2023/03/27 00:56:08;;;;;;;0.40;0.30;;;5.70;99.90;;;;;;5049259;28;20511;-49
2023/03/27 00:58:48;;;;;;;0.63;0.20;;;5.80;99.90;;;;;;5048382;28;20505;-52
2023/03/27 01:01:17;;;;;;;0.45;0.15;;;5.80;99.90;;;;;;5066460;28;20041;-52
2023/03/27 01:03:46;;;;;;;0.77;0.20;;;5.80;99.90;;;;;;5035096;28;20485;-49
2023/03/27 01:06:15;;;;;;;1.25;0.20;;;5.80;99.90;;;;;;5070255;28;20075;-49
2023/03/27 01:08:44;;;;;;;0.80;0.40;;;5.80;99.90;;;;;;5040662;28;20043;-50
2023/03/27 01:18:53;;;;;;;0.57;0.30;;;5.70;99.90;;;;;;5040063;28;20041;-48
2023/03/27 01:21:34;;;;;;;;;;;5.80;99.90;;;;;;5009953;28;20132;-49
2023/03/27 01:24:19;;;;;;;0.40;0.20;;;5.80;99.90;;;;;;5039684;28;20396;-50
2023/03/27 01:27:03;;;;;;;2.00;0.32;;;5.80;99.90;;;;;;5052673;28;20053;-50
2023/03/27 01:29:52;;;;;;;0.47;0.20;;;5.80;99.90;;;;;;5055359;28;20041;-49
2023/03/27 01:32:45;;;;;;;2.35;0.35;;;5.70;99.90;;;;;;5033794;28;20051;-51
2023/03/27 01:35:24;;;;;;;0.43;0.20;;;5.80;99.90;;;;;;5053937;28;20048;-50
2023/03/27 01:38:10;;;;;;;0.25;0.20;;;5.80;99.90;;;;;;5053893;28;20489;-50
2023/03/27 01:40:42;;;;;;;0.50;0.32;;;5.80;99.90;;;;;;5049893;28;20044;-49
2023/03/27 01:43:23;;;;;;;1.63;0.30;;;5.90;99.90;;;;;;5041644;28;20049;-50
2023/03/27 01:45:56;;;;;;;1.52;0.65;;;5.90;99.90;;;;;;5034838;28;20049;-49
2023/03/27 01:48:44;;;;;;;1.63;0.43;;;5.90;99.90;;;;;;5016379;28;20571;-49
2023/03/27 01:51:21;;;;;;;1.33;0.40;;;5.90;99.90;;;;;;5031809;28;20045;-49
2023/03/27 01:53:51;;;;;;;1.17;0.32;;;5.80;99.90;;;;;;5031886;28;20049;-50
2023/03/27 01:56:26;;;;;;;0.35;0.25;;;5.90;99.90;;;;;;5040470;28;20048;-50
2023/03/27 01:59:02;;;;;;;1.45;0.32;;;5.90;99.90;;;;;;5036011;28;20569;-48
2023/03/27 02:01:35;;;;;;;0.82;0.50;;;5.90;99.90;;;;;;5036528;28;20037;-50
2023/03/27 02:04:04;;;;;;;0.35;0.20;;;5.90;99.90;;;;;;5030169;28;20045;-49
2023/03/27 02:06:42;;;;;;;1.67;0.30;;;5.90;99.90;;;;;;5036048;28;20049;-49
2023/03/27 02:09:21;;;;;;;;;;;5.80;99.90;;;;;;5056269;28;20071;-49
2023/03/27 02:11:55;;;;;;;0.82;0.20;;;5.80;99.90;;;;;;5032048;28;19921;-48
2023/03/27 02:14:28;;;;;;;0.38;0.20;;;5.80;99.90;;;;;;5035499;28;20464;-49
2023/03/27 02:17:01;;;;;;;0.60;0.30;;;5.80;99.90;;;;;;5034238;28;20045;-49
2023/03/27 02:19:38;;;;;;;0.50;0.40;;;5.80;99.90;;;;;;5035133;28;20049;-50
2023/03/27 02:22:05;;;;;;;8.32;0.88;;;5.80;99.90;;;;;;5035739;28;20065;-49
2023/03/27 02:24:44;;;;;;;;;;;5.80;99.90;;;;;;5042638;28;20535;-49
2023/03/27 02:27:21;;;;;;;1.67;0.60;;;5.80;99.90;;;;;;5055427;28;19920;-49
2023/03/27 02:30:07;;;;;;;1.50;1.35;;;5.70;99.90;;;;;;5055557;28;20630;-50
2023/03/27 02:32:40;;;;;;;1.48;0.77;;;5.80;99.90;;;;;;5043835;28;20037;-49
2023/03/27 02:35:34;;;;;;;0.50;0.50;;;5.80;99.90;;;;;;5015940;28;20044;-49
2023/03/27 02:38:25;;;;;;;1.92;0.65;;;5.80;99.90;;;;;;5032178;28;20073;-49
2023/03/27 02:41:04;;;;;;;0.77;0.60;;;5.80;99.90;;;;;;5032845;28;20565;-50
2023/03/27 02:44:02;;;;;;;1.27;0.65;;;5.80;99.90;;;;;;5052787;28;20045;-49
2023/03/27 02:47:03;;;;;;;2.17;0.82;;;5.90;99.90;;;;;;5030846;28;20132;-49
2023/03/27 02:49:42;;;;;;;1.60;1.10;;;5.80;99.90;;;;;;5020488;28;20451;-49
2023/03/27 02:52:15;;;;;;;0.70;0.60;;;5.80;99.90;;;;;;5051107;28;20147;-49
2023/03/27 02:54:47;;;;;;;1.27;0.70;;;5.80;99.90;;;;;;5053641;28;20052;-50
2023/03/27 02:57:19;;;;;;;2.20;0.77;;;5.80;99.90;;;;;;5042354;28;20118;-49
2023/03/27 03:00:17;;;;;;;1.20;0.30;;;5.70;99.90;;;;;;5045568;28;20103;-49
2023/03/27 03:02:47;;;;;;;0.20;0.20;;;5.80;99.90;;;;;;5034066;28;20041;-50
2023/03/27 03:05:20;;;;;;;0.95;0.30;;;5.70;99.90;;;;;;5021595;28;20113;-49
2023/03/27 03:07:48;;;;;;;2.08;0.30;;;5.60;99.90;;;;;;5054565;28;20048;-49
2023/03/27 03:10:15;;;;;;;2.80;0.30;;;5.60;99.90;;;;;;5049241;28;20064;-50
2023/03/27 03:12:42;;;;;;;1.67;0.30;;;5.60;99.90;;;;;;5020962;28;20101;-50
2023/03/27 03:15:10;;;;;;;1.00;0.30;;;5.60;99.90;;;;;;5063024;28;20056;-49
2023/03/27 03:17:37;;;;;;;1.60;0.45;;;5.70;99.90;;;;;;5021007;28;20147;-50
2023/03/27 03:20:04;;;;;;;0.90;0.30;;;5.70;99.90;;;;;;5051154;28;20099;-50
2023/03/27 03:22:31;;;;;;;1.85;0.32;;;5.60;99.90;;;;;;5034388;28;20067;-50
2023/03/27 03:24:58;;;;;;;2.78;0.22;;;5.60;99.90;;;;;;5033872;28;20417;-49
2023/03/27 03:27:27;;;;;;;0.30;0.22;;;5.60;99.90;;;;;;5033235;28;20045;-49
2023/03/27 03:30:03;;;;;;;1.17;0.40;;;5.60;99.90;;;;;;5033477;28;20091;-49
2023/03/27 03:32:34;;;;;;;1.02;0.40;;;5.60;99.90;;;;;;5032056;28;20037;-49
2023/03/27 03:35:05;;;;;;;0.40;0.30;;;5.60;99.90;;;;;;5035110;28;20056;-51
2023/03/27 03:37:37;;;;;;;0.98;0.28;;;5.60;99.90;;;;;;5033790;28;20068;-49
2023/03/27 03:40:10;;;;;;;1.83;0.45;;;5.60;99.90;;;;;;5033819;28;20041;-50
2023/03/27 03:42:51;;;;;;;0.88;0.20;;;5.60;99.90;;;;;;5032971;28;20045;-49
2023/03/27 03:45:22;;;;;;;4.07;0.30;;;5.60;99.90;;;;;;5032652;28;20095;-49
2023/03/27 03:47:49;;;;;;;1.02;0.50;;;5.50;99.90;;;;;;5030969;28;20064;-51
2023/03/27 03:50:16;;;;;;;2.22;0.40;;;5.50;99.90;;;;;;5050686;28;20091;-49
2023/03/27 03:52:44;;;;;;;1.38;0.40;;;5.50;99.90;;;;;;5033804;28;20037;-50
2023/03/27 03:55:11;;;;;;;1.75;0.35;;;5.50;99.90;;;;;;5050169;28;20037;-49
2023/03/27 03:57:38;;;;;;;0.75;0.30;;;5.50;99.90;;;;;;5033356;28;20063;-49
2023/03/27 04:00:11;;;;;;;1.65;0.70;;;5.50;99.90;;;;;;5028248;28;20476;-48
2023/03/27 04:02:51;;;;;;;2.25;0.75;;;5.40;99.90;;;;;;5033362;28;20049;-49
2023/03/27 04:05:18;;;;;;;2.95;0.35;;;5.40;99.90;;;;;;5032838;28;20032;-49
2023/03/27 04:07:49;;;;;;;0.80;0.30;;;5.30;99.90;;;;;;5033114;28;20497;-49
2023/03/27 04:10:18;;;;;;;1.10;0.28;;;5.30;99.90;;;;;;5048750;28;20045;-49
2023/03/27 04:12:47;;;;;;;1.88;0.50;;;5.30;99.90;;;;;;5033635;28;20607;-50
2023/03/27 04:15:26;;;;;;;3.72;0.50;;;5.30;99.90;;;;;;5030624;28;20584;-49
2023/03/27 04:18:31;;;;;;;1.80;0.40;;;5.30;99.90;;;;;;5032002;28;20055;-49
2023/03/27 04:21:00;;;;;;;;;;;5.30;99.90;;;;;;5027602;28;20099;-49
2023/03/27 04:23:32;;;;;;;0.80;0.20;;;5.30;99.90;;;;;;5030563;28;19920;-49
2023/03/27 04:26:02;;;;;;;1.75;0.20;;;5.20;99.90;;;;;;5031940;28;20055;-49
2023/03/27 04:28:53;;;;;;;4.07;0.32;;;5.10;99.90;;;;;;5034095;28;20067;-50
2023/03/27 04:31:45;;;;;;;1.15;0.20;;;5.10;99.90;;;;;;5045951;28;20051;-48
2023/03/27 04:34:31;;;;;;;2.95;0.40;;;4.90;99.90;;;;;;5039537;28;21104;-49
2023/03/27 04:37:05;;;;;;;2.63;0.50;;;4.90;99.90;;;;;;5032495;28;20521;-51
2023/03/27 04:39:41;;;;;;;0.52;0.47;;;4.80;99.90;;;;;;5031844;28;20044;-48
2023/03/27 04:42:09;;;;;;;3.75;0.38;;;4.80;99.90;;;;;;5045594;28;20432;-49
2023/03/27 04:44:37;;;;;;;0.63;0.25;;;4.90;99.90;;;;;;5032708;28;20052;-49
2023/03/27 04:47:05;;;;;;;0.88;0.40;;;4.90;99.90;;;;;;5032773;28;20040;-50
2023/03/27 04:49:48;;;;;;;0.55;0.30;;;4.90;99.90;;;;;;5030571;28;20052;-49
2023/03/27 04:52:28;;;;;;;1.35;0.47;;;4.80;99.90;;;;;;5031879;28;20139;-50
2023/03/27 04:54:57;;;;;;;0.73;0.30;;;4.80;99.90;;;;;;5036308;28;20594;-50
2023/03/27 04:57:27;;;;;;;0.88;0.50;;;4.80;99.90;;;;;;5032136;28;20052;-48
2023/03/27 04:59:58;;;;;;;0.73;0.60;;;4.70;99.90;;;;;;5030961;28;20045;-50
2023/03/27 05:02:54;;;;;;;0.77;0.35;;;4.70;99.90;;;;;;4971720;28;20117;-50
2023/03/27 05:05:33;;;;;;;1.38;0.32;;;4.70;99.90;;;;;;5030718;28;20072;-52
2023/03/27 05:08:03;;;;;;;0.40;0.20;;;4.80;99.90;;;;;;5035401;28;20574;-52
2023/03/27 05:10:30;;;;;;;2.38;0.70;;;4.70;99.90;;;;;;5027046;28;20041;-49
2023/03/27 05:12:59;;;;;;;2.90;0.77;;;4.60;99.90;;;;;;5037141;28;20436;-49
2023/03/27 05:15:26;;;;;;;2.88;0.68;;;4.60;99.90;;;;;;5031992;28;20045;-50
2023/03/27 05:17:54;;;;;;;1.35;0.70;;;4.70;99.90;;;;;;5032694;28;20071;-50
2023/03/27 05:20:24;;;;;;;3.60;0.65;;;4.70;99.90;;;;;;5033004;28;20107;-49
2023/03/27 05:22:55;;;;;;;1.40;0.63;;;4.70;99.90;;;;;;5049218;28;20037;-49
2023/03/27 05:25:27;;;;;;;5.47;1.60;;;4.70;99.90;;;;;;5035728;28;20151;-51
2023/03/27 05:27:55;;;;;;;2.40;1.50;;;4.70;99.90;;;;;;5029808;28;20572;-49
2023/03/27 05:30:25;;;;;;;1.80;0.95;;;4.80;99.90;;;;;;5035093;28;20106;-49
2023/03/27 05:33:22;;;;;;;1.80;1.00;;;4.80;99.90;;;;;;5035447;28;20398;-53
2023/03/27 05:35:51;;;;;;;1.90;0.82;;;4.80;99.90;;;;;;5035870;28;20065;-50
2023/03/27 05:39:03;;;;;;;1.75;1.23;;;4.80;99.90;;;;;;5034439;28;20132;-54
2023/03/27 05:41:35;;;;;;;1.67;0.85;;;4.80;99.90;;;;;;5012059;28;20052;-49
2023/03/27 05:44:04;;;;;;;1.83;0.82;;;4.80;99.90;;;;;;5036479;28;20044;-49
2023/03/27 05:46:35;;;;;;;2.30;1.50;;;4.70;99.90;;;;;;5037056;28;20056;-49
2023/03/27 05:49:12;;;;;;;2.70;2.17;;;4.70;99.90;;;;;;5050444;28;20048;-50
2023/03/27 05:51:40;;;;;;;5.30;1.60;;;4.70;99.90;;;;;;5043251;28;20053;-49
2023/03/27 05:54:18;;;;;;;5.70;3.08;;;4.70;99.90;;;;;;5034784;28;20505;-50
2023/03/27 05:56:53;;;;;;;5.30;2.28;;;4.70;99.90;;;;;;5035561;28;20051;-51
2023/03/27 05:59:20;;;;;;;;;;;4.70;99.90;;;;;;5029160;28;20413;-49
2023/03/27 06:01:50;;;;;;;1.63;0.77;;;4.70;99.90;;;;;;5022144;28;19956;-48
2023/03/27 06:04:23;;;;;;;5.75;1.90;;;4.70;99.90;;;;;;5014802;28;20053;-48
2023/03/27 06:07:16;;;;;;;3.78;1.63;;;4.60;99.90;;;;;;5034905;28;20123;-49
2023/03/27 06:09:44;;;;;;;;;;;4.70;99.90;;;;;;5046949;28;20045;-50
2023/03/27 06:13:01;;;;;;;1.52;1.02;;;4.70;99.90;;;;;;5038915;28;20400;-51
2023/03/27 06:15:37;;;;;;;1.60;0.90;;;4.70;99.90;;;;;;5033712;28;20540;-48
2023/03/27 06:18:16;;;;;;;5.25;1.95;;;4.80;99.90;;;;;;5034683;28;20148;-49
2023/03/27 06:20:43;;;;;;;6.28;3.28;;;4.80;99.90;;;;;;5052627;28;20098;-49
2023/03/27 06:23:11;;;;;;;;;;;4.80;99.90;;;;;;5036568;28;20136;-49
2023/03/27 06:25:39;;;;;;;2.03;0.90;;;4.80;99.90;;;;;;5015829;28;19921;-49
2023/03/27 06:28:09;;;;;;;1.05;0.52;;;4.70;99.90;;;;;;5036282;28;20064;-50
2023/03/27 06:30:42;;;;;;;1.70;0.50;;;4.70;99.90;;;;;;5053854;28;20033;-50
2023/03/27 06:33:28;;;;;;;0.95;0.00;;;4.70;99.90;;;;;;5033568;28;20045;-50
2023/03/27 06:36:01;;;;;;;0.22;0.00;;;4.70;99.90;;;;;;5034078;28;20044;-49
2023/03/27 06:38:31;;;;;;;0.00;0.00;;;4.60;99.90;;;;;;5034107;28;20040;-50
2023/03/27 06:40:59;;;;;;;0.00;0.00;;;4.60;99.90;;;;;;5022386;28;20045;-49
2023/03/27 06:43:46;;;;;;;0.00;0.00;;;4.60;99.90;;;;;;5051035;28;20135;-48
2023/03/27 06:46:26;;;;;;;0.00;0.00;;;4.60;99.90;;;;;;5034042;28;20562;-49
2023/03/27 06:49:33;;;;;;;1.35;0.08;;;4.60;99.90;;;;;;5010198;28;20139;-49
2023/03/27 06:52:08;;;;;;;0.03;0.00;;;4.60;99.90;;;;;;5054473;28;20547;-50
2023/03/27 06:54:35;;;;;;;0.40;0.10;;;4.60;99.90;;;;;;5040535;28;20128;-49
2023/03/27 06:57:02;;;;;;;0.17;0.10;;;4.60;99.90;;;;;;5031188;28;20445;-49
2023/03/27 06:59:55;;;;;;;0.35;0.20;;;4.50;99.90;;;;;;5065163;28;20071;-49
2023/03/27 07:02:39;;;;;;;0.10;0.00;;;4.40;99.90;;;;;;5029912;28;20037;-50
2023/03/27 07:05:36;;;;;;;0.20;0.10;;;4.40;99.90;;;;;;5029782;28;20072;-48
2023/03/27 07:08:05;;;;;;;0.05;0.05;;;4.30;99.90;;;;;;5032748;28;20087;-49
2023/03/27 07:10:49;;;;;;;0.30;0.10;;;4.30;99.90;;;;;;5059645;23;20052;-50
2023/03/27 07:14:02;;;;;;;0.90;0.10;;;4.30;99.90;;;;;;5025941;28;20132;-50
2023/03/27 07:16:30;;;;;;;1.23;0.20;;;4.30;99.90;;;;;;5066458;28;20050;-49
2023/03/27 07:18:57;;;;;;;0.40;0.20;;;4.20;99.90;;;;;;5091673;28;20428;-52
2023/03/27 07:21:29;;;;;;;0.10;0.10;;;4.00;99.90;;;;;;5073723;28;20048;-51
2023/03/27 07:23:58;;;;;;;1.23;0.43;;;3.80;99.90;;;;;;5074785;28;20044;-50
2023/03/27 07:26:33;;;;;;;0.10;0.05;;;3.60;99.90;;;;;;5058160;28;20051;-50
2023/03/27 07:29:09;;;;;;;0.85;0.28;;;3.50;99.90;;;;;;5054288;28;20045;-53
2023/03/27 07:31:37;;;;;;;0.38;0.28;;;3.40;99.90;;;;;;5052758;28;20486;-50
2023/03/27 07:34:32;;;;;;;4.68;0.40;;;3.20;99.90;;;;;;5062068;28;20050;-48
2023/03/27 07:37:18;;;;;;;2.28;0.43;;;3.10;99.90;;;;;;5084558;28;20047;-52
2023/03/27 07:40:05;;;;;;;1.20;0.47;;;3.00;99.90;;;;;;5092253;28;20046;-53
2023/03/27 07:42:36;;;;;;;2.35;0.40;;;3.00;99.90;;;;;;5073761;28;20048;-50
2023/03/27 07:45:06;;;;;;;1.85;0.40;;;3.00;99.90;;;;;;5072811;28;20044;-49
2023/03/27 07:47:33;;;;;;;2.08;0.40;;;3.10;99.90;;;;;;5067663;28;20358;-50
2023/03/27 07:50:00;;;;;;;0.88;0.30;;;3.10;99.90;;;;;;5072867;28;20056;-50
2023/03/27 07:52:28;;;;;;;0.50;0.35;;;3.20;99.90;;;;;;5092212;28;20527;-49
2023/03/27 07:54:57;;;;;;;0.90;0.30;;;3.30;99.90;;;;;;5074503;28;20085;-50
2023/03/27 07:57:32;;;;;;;0.45;0.20;;;3.30;99.90;;;;;;5057202;28;20032;-49
2023/03/27 08:00:17;;;;;;;0.60;0.32;;;3.30;99.90;;;;;;5070621;28;20040;-49
2023/03/27 08:03:09;;;;;;;0.20;0.20;;;3.20;99.90;;;;;;5069882;28;20044;-50
2023/03/27 08:05:41;;;;;;;0.95;0.47;;;3.10;99.90;;;;;;5073711;28;20244;-50
2023/03/27 08:08:11;;;;;;;0.60;0.40;;;3.00;99.90;;;;;;5070693;28;20522;-49
2023/03/27 08:10:58;;;;;;;1.60;0.80;;;2.90;99.90;;;;;;5053573;28;20056;-52
2023/03/27 08:13:30;;;;;;;1.38;0.43;;;2.80;99.90;;;;;;5057372;28;20369;-49
2023/03/27 08:16:06;;;;;;;0.60;0.38;;;2.70;99.90;;;;;;5069766;28;20051;-49
2023/03/27 08:18:33;;;;;;;0.52;0.40;;;2.70;99.90;;;;;;5044731;28;20044;-50
2023/03/27 08:21:02;;;;;;;0.98;0.50;;;2.60;99.90;;;;;;5063806;28;20054;-50
2023/03/27 08:23:31;;;;;;;0.52;0.43;;;2.50;99.90;;;;;;5060533;28;20132;-49
2023/03/27 08:26:07;;;;;;;0.70;0.40;;;2.40;99.90;;;;;;5069875;28;20048;-49
2023/03/27 08:28:42;;;;;;;1.33;0.47;;;2.40;99.90;;;;;;5051525;28;20045;-49
2023/03/27 08:31:13;;;;;;;0.65;0.50;;;2.40;99.90;;;;;;5069846;28;20043;-49
2023/03/27 08:33:42;;;;;;;0.55;0.40;;;2.40;99.90;;;;;;5053174;28;20136;-49
2023/03/27 08:36:14;;;;;;;1.40;1.27;;;2.40;99.90;;;;;;5037425;28;20090;-51
2023/03/27 08:38:42;;;;;;;0.60;0.43;;;2.40;99.90;;;;;;5067983;28;20043;-51
2023/03/27 08:41:29;;;;;;;1.83;0.30;;;2.40;99.90;;;;;;5072735;28;20048;-50
2023/03/27 08:44:12;;;;;;;0.63;0.40;;;2.50;99.90;;;;;;5073178;28;20105;-50
2023/03/27 08:46:48;;;;;;;0.47;0.30;;;2.50;99.90;;;;;;5061689;28;20531;-51
2023/03/27 08:49:20;;;;;;;1.23;0.55;;;2.60;99.90;;;;;;5073339;28;20409;-50
2023/03/27 08:52:15;;;;;;;3.60;0.40;;;2.60;99.90;;;;;;5072765;28;20040;-49
2023/03/27 08:54:57;;;;;;;0.38;0.20;;;2.60;99.90;;;;;;5062949;28;20474;-49
2023/03/27 08:57:33;;;;;;;0.13;0.10;;;2.60;99.90;;;;;;5063482;28;20040;-51
2023/03/27 09:00:28;;;;;;;0.50;0.22;;;2.70;99.90;;;;;;5052973;28;20051;-52
2023/03/27 09:03:39;;;;;;;0.43;0.20;;;2.80;99.90;;;;;;5053054;28;20416;-49
2023/03/27 09:06:32;;;;;;;1.42;0.65;;;2.80;99.90;;;;;;5051516;28;20048;-50
2023/03/27 09:09:41;;;;;;;0.80;0.40;;;2.80;99.90;;;;;;5052601;28;20048;-52
2023/03/27 09:12:28;;;;;;;1.90;0.80;;;2.70;99.90;;;;;;5050744;28;20079;-50
2023/03/27 09:15:03;;;;;;;0.35;0.30;;;2.70;99.90;;;;;;5053682;28;20037;-50
2023/03/27 09:17:40;;;;;;;2.42;0.30;;;2.60;99.90;;;;;;5050390;28;20036;-50
2023/03/27 09:20:22;;;;;;;0.60;0.40;;;2.60;99.90;;;;;;5043243;28;20049;-51
2023/03/27 09:22:56;;;;;;;0.25;0.20;;;2.60;99.90;;;;;;5035825;28;20098;-49
2023/03/27 09:25:54;;;;;;;1.60;0.82;;;2.60;99.90;;;;;;5066212;28;20056;-51
2023/03/27 09:28:54;;;;;;;1.90;0.65;;;2.80;99.90;;;;;;5027163;28;20494;-49
2023/03/27 09:31:30;;;;;;;0.95;0.45;;;2.90;99.90;;;;;;5042574;28;20041;-50
2023/03/27 09:34:03;;;;;;;0.95;0.47;;;3.10;99.90;;;;;;5069590;28;20033;-52
2023/03/27 09:36:30;;;;;;;3.33;0.80;;;3.00;99.90;;;;;;5052386;28;20106;-51
2023/03/27 09:39:14;;;;;;;1.67;0.70;;;3.20;99.90;;;;;;5048425;28;20049;-51
2023/03/27 09:41:46;;;;;;;0.63;0.30;;;3.20;99.90;;;;;;5049709;28;20068;-49
2023/03/27 09:44:34;;;;;;;0.60;0.32;;;3.20;99.90;;;;;;5051752;28;20040;-49
2023/03/27 09:47:14;;;;;;;0.70;0.50;;;3.20;99.90;;;;;;5060500;28;20045;-50
2023/03/27 09:49:48;;;;;;;3.30;0.75;;;3.10;99.90;;;;;;5051911;28;20078;-49
2023/03/27 09:52:39;;;;;;;5.85;1.40;;;3.10;99.90;;;;;;5052387;28;20041;-49
2023/03/27 09:55:25;;;;;;;;;;;2.90;99.90;;;;;;5051114;28;20155;-49
2023/03/27 09:57:57;;;;;;;2.42;1.40;;;2.60;99.90;;;;;;5055087;28;19928;-51
2023/03/27 10:00:25;;;;;;;5.10;2.05;;;2.40;99.90;;;;;;5073197;28;20124;-51
2023/03/27 10:03:15;;;;;;;2.60;1.25;;;2.20;99.90;;;;;;5054731;28;20044;-48
2023/03/27 10:05:45;;;;;;;7.55;2.28;;;2.10;99.90;;;;;;5036221;28;20474;-49
2023/03/27 10:08:41;;;;;;;4.30;2.58;;;2.20;99.90;;;;;;5053376;28;20044;-50
2023/03/27 10:11:19;;;;;;;8.00;2.83;;;2.30;99.90;;;;;;5055398;28;20040;-49
2023/03/27 10:14:00;;;;;;;5.88;2.33;;;2.50;99.90;;;;;;5061508;28;20044;-51
2023/03/27 10:16:28;;;;;;;5.55;2.50;;;2.70;99.90;;;;;;5062154;28;20032;-50
2023/03/27 10:19:02;;;;;;;7.75;2.30;;;2.90;99.90;;;;;;5055157;28;20408;-53
2023/03/27 10:21:41;;;;;;;5.40;2.50;;;3.10;99.90;;;;;;5055633;28;20045;-51
2023/03/27 10:24:32;;;;;;;5.45;1.95;;;3.20;99.90;;;;;;5071909;28;20094;-50
2023/03/27 10:27:29;;;;;;;8.10;2.85;;;3.20;99.90;;;;;;5060679;28;20080;-51
2023/03/27 10:30:36;;;;;;;8.85;2.53;;;3.30;99.90;;;;;;5093848;28;20181;-52
2023/03/27 10:33:29;;;;;;;9.88;3.28;;;3.40;99.90;;;;;;5075466;28;20044;-52
2023/03/27 10:36:10;;;;;;;7.68;3.17;;;3.40;99.90;;;;;;5055522;28;20052;-50
2023/03/27 10:38:40;;;;;;;6.05;2.55;;;3.40;99.90;;;;;;5068640;28;20102;-51
2023/03/27 10:41:29;;;;;;;9.48;2.50;;;3.40;99.90;;;;;;5061799;28;20056;-53
2023/03/27 10:43:58;;;;;;;7.68;2.63;;;3.20;99.90;;;;;;5075300;28;20400;-49
2023/03/27 10:46:27;;;;;;;7.57;2.70;;;3.10;99.90;;;;;;5074618;28;20489;-49
2023/03/27 10:49:19;;;;;;;9.23;3.00;;;3.00;99.90;;;;;;5068546;28;20114;-50
2023/03/27 10:52:04;;;;;;;4.15;2.70;;;2.70;99.90;;;;;;5070885;28;20412;-51
2023/03/27 10:54:53;;;;;;;6.65;2.30;;;2.50;99.90;;;;;;5075288;28;20036;-50
2023/03/27 10:57:28;;;;;;;6.53;2.20;;;2.30;99.90;;;;;;5071293;28;20370;-52
2023/03/27 11:00:12;;;;;;;5.97;1.98;;;2.20;99.90;;;;;;5073985;28;20093;-52
2023/03/27 11:03:15;;;;;;;7.13;2.72;;;2.10;99.90;;;;;;5070985;28;20039;-49
2023/03/27 11:05:47;;;;;;;5.05;2.90;;;2.20;99.90;;;;;;5074527;28;20056;-51
2023/03/27 11:08:57;;;;;;;6.13;2.78;;;2.40;99.90;;;;;;5074012;28;20508;-51
2023/03/27 11:11:29;;;;;;;4.15;2.50;;;2.50;99.90;;;;;;5075051;28;20052;-51
2023/03/27 11:14:03;;;;;;;7.05;2.70;;;2.70;99.90;;;;;;5053625;28;20048;-49
2023/03/27 11:16:38;;;;;;;5.90;2.60;;;2.80;99.90;;;;;;5042605;28;20036;-50
2023/03/27 11:19:36;;;;;;;6.43;3.38;;;2.90;99.90;;;;;;5092742;28;20048;-50
2023/03/27 11:22:36;;;;;;;6.65;3.53;;;3.00;99.90;;;;;;5084238;28;20629;-51
2023/03/27 11:25:19;;;;;;;10.38;3.13;;;3.10;99.90;;;;;;5073909;28;20409;-50
2023/03/27 11:28:23;;;;;;;7.95;3.10;;;3.30;99.90;;;;;;5074439;28;20048;-50
2023/03/27 11:31:05;;;;;;;7.72;3.90;;;3.50;99.90;;;;;;5070838;28;20409;-51
2023/03/27 11:33:48;;;;;;;7.85;3.80;;;3.50;99.90;;;;;;5049160;28;20139;-50
2023/03/27 11:36:28;;;;;;;9.82;3.78;;;3.50;99.90;;;;;;5072717;28;20521;-49
2023/03/27 11:39:34;;;;;;;7.75;3.90;;;3.50;99.90;;;;;;5054232;28;20502;-50
2023/03/27 11:42:13;;;;;;;12.07;4.53;;;3.60;99.90;;;;;;5033313;28;20052;-51
2023/03/27 11:44:40;;;;;;;12.27;4.28;;;3.40;99.90;;;;;;5059248;28;20534;-51
2023/03/27 11:47:25;;;;;;;13.52;4.50;;;3.40;99.90;;;;;;5091972;28;20056;-49
2023/03/27 11:50:10;;;;;;;8.88;4.25;;;3.30;99.90;;;;;;5090156;28;20588;-53
2023/03/27 11:53:15;;;;;;;10.30;4.25;;;3.30;99.90;;;;;;5074378;28;20054;-49
2023/03/27 11:56:25;;;;;;;15.07;4.88;;;3.20;99.90;;;;;;5070248;28;20424;-51
2023/03/27 11:59:27;;;;;;;12.80;4.63;;;3.10;99.90;;;;;;5053574;28;20051;-49
2023/03/27 12:02:36;;;;;;;11.25;5.15;;;3.20;99.90;;;;;;5061439;28;20052;-51
2023/03/27 12:05:21;;;;;;;10.88;4.70;;;3.30;99.90;;;;;;5090369;28;20139;-50
2023/03/27 12:08:36;;;;;;;12.82;4.88;;;3.50;99.90;;;;;;5092321;28;20613;-51
2023/03/27 12:11:08;;;;;;;14.15;5.10;;;3.70;99.90;;;;;;5060750;28;20055;-51
2023/03/27 12:14:04;;;;;;;11.77;4.22;;;3.80;99.90;;;;;;5071787;28;20041;-51
2023/03/27 12:17:09;;;;;;;11.68;4.45;;;3.80;99.90;;;;;;5067328;28;20122;-52
2023/03/27 12:20:14;;;;;;;11.38;4.80;;;3.80;99.90;;;;;;5073262;28;20048;-54
2023/03/27 12:23:02;;;;;;;10.68;4.60;;;3.70;99.90;;;;;;5068582;28;20113;-50
2023/03/27 12:26:07;;;;;;;16.15;5.43;;;3.70;99.90;;;;;;4989787;28;20061;-52
2023/03/27 12:29:07;;;;;;;18.85;5.72;;;3.80;99.90;;;;;;5061874;28;20048;-51
2023/03/27 12:32:22;;;;;;;14.45;5.65;;;4.00;99.90;;;;;;5053609;28;20082;-52
2023/03/27 12:35:02;;;;;;;10.25;3.97;;;4.20;99.90;;;;;;5068565;28;20467;-52
2023/03/27 12:37:48;;;;;;;21.33;6.78;;;4.20;99.90;;;;;;5073323;28;20452;-50
2023/03/27 12:40:29;;;;;;;14.55;4.20;;;4.20;99.90;;;;;;5073049;28;20075;-53
2023/03/27 12:43:26;;;;;;;9.63;3.63;;;4.20;99.90;;;;;;5069236;28;20173;-53
2023/03/27 12:46:11;;;;;;;13.27;4.15;;;4.20;99.90;;;;;;5073383;28;20089;-53
2023/03/27 12:48:56;;;;;;;13.27;4.78;;;4.30;99.90;;;;;;5087761;28;20040;-53
2023/03/27 12:51:36;;;;;;;7.93;2.90;;;4.50;99.90;;;;;;5072825;28;20429;-51
2023/03/27 12:54:26;;;;;;;9.48;3.67;;;4.50;99.90;;;;;;5072912;28;20048;-52
2023/03/27 12:57:04;;;;;;;12.15;4.40;;;4.40;99.90;;;;;;5049838;28;20058;-52
2023/03/27 12:59:38;;;;;;;11.90;4.40;;;4.20;99.90;;;;;;5052985;28;20139;-52
2023/03/27 13:02:14;;;;;;;9.63;3.47;;;4.10;99.90;;;;;;5053124;28;20437;-52
2023/03/27 13:05:09;;;;;;;12.23;4.00;;;4.00;99.90;;;;;;5058680;28;20051;-51
2023/03/27 13:08:20;;;;;;;14.73;3.63;;;4.10;99.90;;;;;;5089607;28;20282;-52
2023/03/27 13:11:08;;;;;;;14.43;4.07;;;4.00;99.90;;;;;;5076465;22;20052;-50
2023/03/27 13:17:56;;;;;;;9.23;3.88;;;4.40;99.90;;;;;;5063090;28;20392;-48
2023/03/27 13:20:26;;;;;;;4.47;2.30;;;4.70;99.90;;;;;;5069032;28;20424;-50
2023/03/27 13:23:16;;;;;;;16.17;4.15;;;5.00;99.90;;;;;;5047862;28;20083;-50
2023/03/27 13:25:58;;;;;;;11.27;3.17;;;5.00;99.90;;;;;;5060090;28;20043;-48
2023/03/27 13:28:51;;;;;;;7.47;2.95;;;4.60;99.90;;;;;;5063442;28;20044;-50
2023/03/27 13:31:44;;;;;;;10.95;3.45;;;4.40;99.90;;;;;;5072804;28;20144;-49
2023/03/27 13:34:39;;;;;;;10.38;2.83;;;4.40;99.90;;;;;;5052702;28;20044;-49
2023/03/27 13:37:10;;;;;;;7.43;2.83;;;4.20;99.90;;;;;;5070122;28;20135;-49
2023/03/27 13:40:05;;;;;;;6.47;2.80;;;4.50;99.90;;;;;;5056222;28;20048;-48
2023/03/27 13:42:40;;;;;;;8.20;2.70;;;4.80;99.90;;;;;;5073355;28;20072;-49
2023/03/27 13:45:19;;;;;;;7.05;2.20;;;4.60;99.90;;;;;;5074623;28;20098;-50
2023/03/27 13:48:57;;;;;;;9.25;2.75;;;4.70;99.90;;;;;;5071125;28;20091;-49
2023/03/27 13:51:59;;;;;;;7.82;2.35;;;4.40;99.90;;;;;;5025051;28;20068;-50
2023/03/27 13:54:33;;;;;;;10.73;2.80;;;4.10;99.90;;;;;;5037841;28;20048;-48
2023/03/27 13:57:21;;;;;;;9.55;3.17;;;3.80;99.90;;;;;;5052310;28;20037;-48
2023/03/27 14:00:25;;;;;;;8.52;2.53;;;3.60;99.90;;;;;;5071871;28;20079;-50
2023/03/27 14:03:32;;;;;;;8.60;1.75;;;3.40;99.90;;;;;;5054001;28;20049;-48
2023/03/27 14:06:11;;;;;;;5.70;2.30;;;3.00;99.90;;;;;;5056297;28;20508;-49
2023/03/27 14:09:14;;;;;;;6.70;2.17;;;2.60;99.90;;;;;;5072158;28;20036;-48
2023/03/27 14:12:42;;;;;;;6.37;2.43;;;2.20;99.90;;;;;;5071974;28;20106;-49
2023/03/27 14:15:55;;;;;;;9.25;2.13;;;2.00;99.90;;;;;;5073398;28;20060;-53